Fountain, MN

4:01 AM CDT on September 25, 2016 (GMT -0500)
Preston

Weather History for KFKA - April, 2013

Change the Weather History Date:

Monday, April 1, 2013

  Actual Average (KRST) Record (KRST)
Temperature  
Mean Temperature 24 °F 40 °F  
Max Temperature 30 °F 49 °F 83 °F (2010)
Min Temperature 18 °F 31 °F 10 °F (1975)
Degree Days  
Heating Degree Days 41 25  
Month to date heating degree days 25  
Since 1 July heating degree days 6897  
Cooling Degree Days 0 0  
Month to date cooling degree days 0  
Year to date cooling degree days 0  
Moisture  
Dew Point 16 °F    
Average Humidity 71    
Maximum Humidity 81    
Minimum Humidity 56    
Precipitation  
Precipitation 0.00 in 0.08 in 0.57 in (1977)
Month to date precipitation 0.08  
Year to date precipitation 3.65  
Snow  
Snow 0.00 in 0.20 in 4.10 in (1962)
Month to date snowfall 0.2  
Since 1 July snowfall 48.8  
Snow Depth -    
Sea Level Pressure  
Sea Level Pressure 30.17 in    
Wind  
Wind Speed 14 mph (NW)    
Max Wind Speed 17 mph    
Max Gust Speed 22 mph    
Visibility 10 miles    
Events      
T = Trace of Precipitation, MM = Missing Value Source: NWS Daily Summary

Daily Weather History Graph

Daily Weather History Graph

Search for Another Location

Airport or City:

Trip Planner

Search our weather history database for the weather conditions in past years. The results will help you decide how hot, cold, wet, or windy it might be!

Date:

Astronomy

Apr. 01, 2013 Rise Set
Actual Time 6:49 AM CDT 7:35 PM CDT
Civil Twilight 6:20 AM CDT 8:04 PM CDT
Nautical Twilight 5:46 AM CDT 8:39 PM CDT
Astronomical Twilight 5:10 AM CDT 9:15 PM CDT
Moon 12:52 AM CDT (4/1) 10:28 AM CDT (4/1)
Length of Visible Light 13h 44m
Length of Day
12h 46m
Waning Gibbous, 67% of the Moon is Illuminated
Apr 1
Waning Gibbous
Apr 2
Last Quarter
Apr 10
New
Apr 18
First Quarter
Apr 25
Full

Hourly Weather History & Observations

Time (CDT) Temp. Windchill Dew Point Humidity Pressure Visibility Wind Dir Wind Speed Gust Speed Precip Events Conditions
12:16 AM 25.7 °F 12.7 °F 18.9 °F 75% 30.02 in 10.0 mi NW 17.3 mph 21.9 mph N/A   Clear
12:56 AM 24.8 °F 12.4 °F 18.1 °F 76% 30.03 in 10.0 mi NNW 15.0 mph - N/A   Clear
1:17 AM 24.6 °F 11.7 °F 18.0 °F 76% 30.04 in 10.0 mi NW 16.1 mph 19.6 mph N/A   Clear
1:37 AM 23.9 °F 11.7 °F 17.1 °F 75% 30.05 in 10.0 mi NNW 13.8 mph - N/A   Clear
1:56 AM 23.4 °F 11.6 °F 16.9 °F 76% 30.05 in 10.0 mi NW 12.7 mph 17.3 mph N/A   Clear
2:16 AM 23.0 °F 11.1 °F 16.5 °F 76% 30.06 in 10.0 mi NW 12.7 mph - N/A   Clear
2:37 AM 22.8 °F 10.4 °F 16.3 °F 76% 30.06 in 10.0 mi NNW 13.8 mph - N/A   Clear
2:57 AM 22.1 °F 10.0 °F 16.0 °F 77% 30.07 in 10.0 mi NW 12.7 mph - N/A   Clear
3:15 AM 21.9 °F 9.2 °F 15.8 °F 77% 30.07 in 10.0 mi NW 13.8 mph - N/A   Clear
3:36 AM 21.6 °F 8.8 °F 15.6 °F 78% 30.07 in 10.0 mi NNW 13.8 mph - N/A   Clear
3:56 AM 21.2 °F 8.9 °F 15.6 °F 79% 30.08 in 10.0 mi NNW 12.7 mph - N/A   Clear
4:16 AM 21.0 °F 9.3 °F 14.9 °F 77% 30.08 in 10.0 mi NW 11.5 mph - N/A   Clear
4:36 AM 20.5 °F 10.0 °F 14.9 °F 79% 30.09 in 10.0 mi NW 9.2 mph - N/A   Clear
4:57 AM 20.1 °F 7.5 °F 14.9 °F 80% 30.10 in 10.0 mi NW 12.7 mph - N/A   Clear
5:17 AM 19.9 °F 6.7 °F 14.5 °F 80% 30.11 in 10.0 mi NW 13.8 mph - N/A   Clear
5:37 AM 19.8 °F 6.5 °F 14.0 °F 78% 30.11 in 10.0 mi NNW 13.8 mph - N/A   Clear
5:57 AM 19.4 °F 6.0 °F 14.0 °F 80% 30.12 in 10.0 mi NNW 13.8 mph 18.4 mph N/A   Clear
6:16 AM 19.2 °F 7.0 °F 13.8 °F 80% 30.13 in 10.0 mi NW 11.5 mph - N/A   Clear
6:37 AM 18.7 °F 5.7 °F 13.8 °F 81% 30.14 in 10.0 mi NW 12.7 mph - N/A   Clear
6:57 AM 18.5 °F 5.5 °F 13.5 °F 81% 30.14 in 10.0 mi NW 12.7 mph - N/A   Clear
7:16 AM 18.5 °F 4.9 °F 13.6 °F 81% 30.15 in 10.0 mi NW 13.8 mph 17.3 mph N/A   Clear
7:37 AM 18.5 °F 6.1 °F 13.6 °F 81% 30.16 in 10.0 mi NW 11.5 mph - N/A   Clear
7:57 AM 19.0 °F 6.8 °F 13.8 °F 80% 30.17 in 10.0 mi NW 11.5 mph - N/A   Clear
8:17 AM 19.4 °F 5.5 °F 13.8 °F 79% 30.17 in 10.0 mi NW 15.0 mph 19.6 mph N/A   Clear
8:36 AM 19.9 °F 7.3 °F 13.8 °F 77% 30.18 in 10.0 mi NNW 12.7 mph - N/A   Clear
8:57 AM 20.3 °F 6.6 °F 13.8 °F 76% 30.18 in 10.0 mi NNW 15.0 mph 20.7 mph N/A   Clear
9:16 AM 20.7 °F 6.6 °F 14.0 °F 75% 30.18 in 10.0 mi NNW 16.1 mph - N/A   Clear
9:37 AM 21.2 °F 7.8 °F 14.4 °F 75% 30.19 in 10.0 mi NW 15.0 mph - N/A   Clear
9:57 AM 21.7 °F 8.5 °F 14.7 °F 74% 30.19 in 10.0 mi NW 15.0 mph 19.6 mph N/A   Clear
10:17 AM 22.1 °F 9.5 °F 14.9 °F 74% 30.19 in 10.0 mi NW 13.8 mph 20.7 mph N/A   Scattered Clouds
10:36 AM 22.8 °F 9.4 °F 14.2 °F 69% 30.20 in 10.0 mi NW 16.1 mph 20.7 mph N/A   Scattered Clouds
10:57 AM 22.8 °F 9.9 °F 14.4 °F 70% 30.21 in 10.0 mi NW 15.0 mph 19.6 mph N/A   Scattered Clouds
11:17 AM 23.0 °F 10.6 °F 14.4 °F 70% 30.21 in 10.0 mi NW 13.8 mph - N/A   Scattered Clouds
11:37 AM 23.7 °F 11.5 °F 15.1 °F 70% 30.21 in 10.0 mi NW 13.8 mph - N/A   Scattered Clouds
11:57 AM 24.1 °F 13.1 °F 15.1 °F 69% 30.21 in 10.0 mi NW 11.5 mph 20.7 mph N/A   Scattered Clouds
12:16 PM 24.6 °F 12.7 °F 15.6 °F 69% 30.21 in 10.0 mi NW 13.8 mph 17.3 mph N/A   Clear
12:37 PM 24.8 °F 11.9 °F 15.1 °F 67% 30.22 in 10.0 mi NW 16.1 mph 19.6 mph N/A   Clear
12:57 PM 25.0 °F 12.6 °F 15.3 °F 67% 30.21 in 10.0 mi NW 15.0 mph 18.4 mph N/A   Clear
1:16 PM 25.7 °F 14.6 °F 16.0 °F 67% 30.21 in 10.0 mi NW 12.7 mph 21.9 mph N/A   Clear
1:37 PM 26.4 °F 16.0 °F 15.8 °F 64% 30.21 in 10.0 mi NW 11.5 mph 20.7 mph N/A   Clear
1:57 PM 27.0 °F 15.6 °F 16.0 °F 63% 30.21 in 10.0 mi NW 13.8 mph 18.4 mph N/A   Clear
2:17 PM 27.3 °F 16.1 °F 16.5 °F 64% 30.21 in 10.0 mi NW 13.8 mph 20.7 mph N/A   Clear
2:37 PM 27.9 °F 16.8 °F 16.3 °F 62% 30.21 in 10.0 mi NW 13.8 mph 20.7 mph N/A   Clear
2:57 PM 28.4 °F 17.5 °F 17.1 °F 63% 30.20 in 10.0 mi NW 13.8 mph - N/A   Clear
3:17 PM 28.4 °F 17.0 °F 16.5 °F 61% 30.21 in 10.0 mi NW 15.0 mph 21.9 mph N/A   Clear
3:37 PM 29.1 °F 18.4 °F 16.5 °F 59% 30.21 in 10.0 mi NNW 13.8 mph 19.6 mph N/A   Clear
3:57 PM 29.3 °F 18.6 °F 15.6 °F 57% 30.21 in 10.0 mi NW 13.8 mph - N/A   Clear
4:17 PM 29.3 °F 17.3 °F 17.1 °F 60% 30.21 in 10.0 mi NW 17.3 mph - N/A   Clear
4:37 PM 29.7 °F 18.2 °F 16.3 °F 58% 30.20 in 10.0 mi NW 16.1 mph 21.9 mph N/A   Clear
4:57 PM 29.8 °F 19.3 °F 17.1 °F 59% 30.20 in 10.0 mi NW 13.8 mph - N/A   Clear
5:17 PM 29.8 °F 19.3 °F 15.8 °F 56% 30.20 in 10.0 mi NW 13.8 mph - N/A   Clear
5:36 PM 29.8 °F 19.8 °F 16.9 °F 59% 30.20 in 10.0 mi NW 12.7 mph 17.3 mph N/A   Clear
5:57 PM 30.0 °F 19.5 °F 16.0 °F 56% 30.20 in 10.0 mi NW 13.8 mph - N/A   Clear
6:17 PM 29.8 °F 19.3 °F 16.3 °F 57% 30.20 in 10.0 mi NW 13.8 mph 20.7 mph N/A   Clear
6:36 PM 29.7 °F 19.6 °F 16.5 °F 58% 30.20 in 10.0 mi NW 12.7 mph - N/A   Clear
6:57 PM 29.3 °F 19.1 °F 16.9 °F 60% 30.19 in 10.0 mi NW 12.7 mph 19.6 mph N/A   Clear
7:17 PM 28.9 °F 18.2 °F 16.7 °F 60% 30.19 in 10.0 mi NW 13.8 mph - N/A   Clear
7:37 PM 28.4 °F 18.0 °F 16.9 °F 62% 30.19 in 10.0 mi NW 12.7 mph - N/A   Clear
7:56 PM 27.9 °F 17.8 °F 17.6 °F 65% 30.19 in 10.0 mi NW 11.5 mph 17.3 mph N/A   Clear
8:17 PM 27.5 °F 18.0 °F 17.2 °F 65% 30.19 in 10.0 mi NW 10.4 mph - N/A   Clear
8:36 PM 27.3 °F 17.7 °F 17.6 °F 67% 30.19 in 10.0 mi NW 10.4 mph - N/A   Clear
8:56 PM 27.3 °F 17.1 °F 17.6 °F 67% 30.20 in 10.0 mi NW 11.5 mph - N/A   Clear
9:16 PM 26.8 °F 16.5 °F 17.6 °F 68% 30.21 in 10.0 mi NW 11.5 mph - N/A   Clear
9:37 PM 26.6 °F 16.8 °F 17.6 °F 69% 30.21 in 10.0 mi NW 10.4 mph - N/A   Clear
9:57 PM 26.4 °F 18.0 °F 18.1 °F 71% 30.21 in 10.0 mi WNW 8.1 mph - N/A   Clear
10:17 PM 25.7 °F 16.4 °F 18.9 °F 75% 30.22 in 10.0 mi WNW 9.2 mph - N/A   Clear
10:37 PM 25.2 °F 17.3 °F 18.9 °F 77% 30.22 in 10.0 mi WNW 6.9 mph - N/A   Clear
10:57 PM 25.3 °F 16.0 °F 19.0 °F 77% 30.22 in 10.0 mi WNW 9.2 mph - N/A   Clear
11:17 PM 25.3 °F 15.3 °F 19.2 °F 78% 30.22 in 10.0 mi WNW 10.4 mph - N/A   Clear
11:37 PM 24.6 °F 15.8 °F 19.4 °F 81% 30.22 in 10.0 mi NW 8.1 mph - N/A   Clear
11:57 PM 25.0 °F 14.8 °F 19.4 °F 79% 30.22 in 10.0 mi NW 10.4 mph - N/A   Clear